Uncle Sam, Louisiana
Current Conditions -  °F | °C
As of 11:15 AM on Thursday 30 Oct 2014 (Local Time) from KL38 Reporting Station
Clear Clear  
Wind Chill: 69°   Ceiling: Unl
Heat Index: 69°   Visibility: 10mi
Dew Point: 44°   Wind: 10mph
Humidity: 41%   Direction: 30°NNE
Pressure: 30.13"   Gusts: NA
Location:  30.02°N, 90.82°W
Report Text: KL38 301615Z AUTO 03009KT 10SM CLR 20/07 A3013 RMK AO2 T02040067
Loading
Personal Weather Stations






























Interactive Weather Map
Tropical Storm Tracking
New forecast layout! Learn more

10-Day Weather Forecast

Advertisements
Track Severe Weather on mobile